createdAt,value
2023-05-19T00:00:15.508Z,18.37
2023-05-19T00:03:21.851Z,18.35
2023-05-19T00:06:26.928Z,18.29
2023-05-19T00:09:29.645Z,18.28
2023-05-19T00:12:32.264Z,18.22
2023-05-19T00:15:35.465Z,18.35
2023-05-19T00:18:37.947Z,18.26
2023-05-19T00:21:40.596Z,18.33
2023-05-19T00:24:43.021Z,18.32
2023-05-19T00:27:45.464Z,18.28
2023-05-19T00:30:47.988Z,18.30
2023-05-19T00:33:50.406Z,18.26
2023-05-19T00:36:52.827Z,18.32
2023-05-19T00:39:55.328Z,18.31
2023-05-19T00:42:57.807Z,18.25
2023-05-19T00:46:00.492Z,18.30
2023-05-19T00:49:02.958Z,18.26
2023-05-19T00:52:06.550Z,18.29
2023-05-19T00:55:09.950Z,18.18
2023-05-19T00:58:14.232Z,18.19
2023-05-19T01:01:17.418Z,18.25
2023-05-19T01:04:21.759Z,18.17
2023-05-19T01:07:25.504Z,18.18
2023-05-19T01:10:27.907Z,18.26
2023-05-19T01:13:30.991Z,18.26
2023-05-19T01:16:59.444Z,18.26
2023-05-19T01:20:08.205Z,18.24
2023-05-19T01:23:49.458Z,18.24
2023-05-19T01:27:00.828Z,18.23
2023-05-19T01:30:42.114Z,18.22
2023-05-19T01:33:46.001Z,18.17
2023-05-19T01:36:51.444Z,18.23
2023-05-19T01:39:55.754Z,18.10
2023-05-19T01:43:00.262Z,18.09
2023-05-19T01:46:03.309Z,18.10
2023-05-19T01:49:06.770Z,18.11
2023-05-19T01:52:09.201Z,18.14
2023-05-19T01:55:11.817Z,18.07
2023-05-19T01:58:43.463Z,18.13
2023-05-19T02:01:53.116Z,18.07
2023-05-19T02:05:00.686Z,18.17
2023-05-19T02:08:09.868Z,18.15
2023-05-19T02:11:29.773Z,18.14
2023-05-19T02:14:38.727Z,18.14
2023-05-19T02:17:47.813Z,18.13
2023-05-19T02:20:50.526Z,18.11
2023-05-19T02:23:52.926Z,18.10
2023-05-19T02:26:55.629Z,18.11
2023-05-19T02:29:58.117Z,18.09
2023-05-19T02:33:00.717Z,18.04
2023-05-19T02:36:03.293Z,18.10
2023-05-19T02:39:05.832Z,18.01
2023-05-19T02:42:08.325Z,18.04
2023-05-19T02:45:11.248Z,18.00
2023-05-19T02:48:16.425Z,17.98
2023-05-19T02:51:18.875Z,17.97
2023-05-19T02:54:21.324Z,18.05
2023-05-19T02:57:24.229Z,17.99
2023-05-19T03:00:26.623Z,18.03
2023-05-19T03:03:29.183Z,18.00
2023-05-19T03:06:32.933Z,18.01
2023-05-19T03:09:35.841Z,17.89
2023-05-19T03:12:38.320Z,17.93
2023-05-19T03:15:42.609Z,18.01
2023-05-19T03:18:45.164Z,18.00
2023-05-19T03:21:47.729Z,17.93
2023-05-19T03:24:51.559Z,17.98
2023-05-19T03:27:54.066Z,17.97
2023-05-19T03:30:56.627Z,17.96
2023-05-19T03:34:03.251Z,17.78
2023-05-19T03:37:05.730Z,17.92
2023-05-19T03:40:10.609Z,17.96
2023-05-19T03:43:16.321Z,17.96
2023-05-19T03:46:27.680Z,17.87
2023-05-19T03:49:40.574Z,17.87
2023-05-19T03:53:12.236Z,17.97
2023-05-19T03:56:18.236Z,17.97
2023-05-19T03:59:20.696Z,18.00
2023-05-19T04:02:23.179Z,17.93
2023-05-19T04:05:25.893Z,18.01
2023-05-19T04:08:29.427Z,17.99
2023-05-19T04:11:31.955Z,18.12
2023-05-19T04:14:34.341Z,18.13
2023-05-19T04:17:36.965Z,18.23
2023-05-19T04:20:39.459Z,18.43
2023-05-19T04:23:41.864Z,18.59
2023-05-19T04:26:46.901Z,18.70
2023-05-19T04:29:51.149Z,18.80
2023-05-19T04:32:53.789Z,18.99
2023-05-19T04:35:56.849Z,19.16
2023-05-19T04:39:02.605Z,19.37
2023-05-19T04:42:06.405Z,19.44
2023-05-19T04:45:10.205Z,19.53
2023-05-19T04:48:15.896Z,19.52
2023-05-19T04:51:18.300Z,19.36
2023-05-19T04:54:21.527Z,19.61
2023-05-19T04:57:24.141Z,19.55
2023-05-19T05:00:26.868Z,19.63
2023-05-19T05:03:38.902Z,19.79
2023-05-19T05:06:42.513Z,19.81
2023-05-19T05:09:45.620Z,19.85
2023-05-19T05:12:48.350Z,19.84
2023-05-19T05:15:54.580Z,19.81
2023-05-19T05:18:58.037Z,19.82
2023-05-19T05:22:01.152Z,19.92
2023-05-19T05:25:05.070Z,19.86
2023-05-19T05:28:07.620Z,20.00
2023-05-19T05:31:12.352Z,19.90
2023-05-19T05:34:15.828Z,19.95
2023-05-19T05:37:18.769Z,20.04
2023-05-19T05:40:21.621Z,20.10
2023-05-19T05:43:24.334Z,19.98
2023-05-19T05:46:33.135Z,20.17
2023-05-19T05:49:38.287Z,20.18
2023-05-19T05:52:42.398Z,20.13
2023-05-19T05:55:46.828Z,20.21
2023-05-19T05:58:50.695Z,20.25
2023-05-19T06:01:53.629Z,20.21
2023-05-19T06:04:56.846Z,20.33
2023-05-19T06:07:59.762Z,20.29
2023-05-19T06:11:20.484Z,20.14
2023-05-19T06:14:24.050Z,20.20
2023-05-19T06:19:02.626Z,20.41
2023-05-19T06:22:58.386Z,20.55
2023-05-19T06:26:06.688Z,20.62
2023-05-19T06:29:09.165Z,20.58
2023-05-19T06:32:11.750Z,20.98
2023-05-19T06:35:15.151Z,20.92
2023-05-19T06:38:17.679Z,20.69
2023-05-19T06:41:24.367Z,20.88
2023-05-19T06:44:27.600Z,21.02
2023-05-19T06:47:30.303Z,20.98
2023-05-19T06:50:33.103Z,21.39
2023-05-19T06:53:36.790Z,21.28
2023-05-19T06:56:43.325Z,21.25
2023-05-19T06:59:48.877Z,21.56
2023-05-19T07:02:51.426Z,21.95
2023-05-19T07:05:54.615Z,21.88
2023-05-19T07:08:57.179Z,21.82
2023-05-19T07:12:01.584Z,21.94
2023-05-19T07:15:06.044Z,21.74
2023-05-19T07:18:09.696Z,21.84
2023-05-19T07:21:12.079Z,21.83
2023-05-19T07:24:15.202Z,21.75
2023-05-19T07:27:17.656Z,21.76
2023-05-19T07:30:20.090Z,21.61
2023-05-19T07:33:22.567Z,21.52
2023-05-19T07:36:25.183Z,21.44
2023-05-19T07:39:32.247Z,21.53
2023-05-19T07:42:35.281Z,21.49
2023-05-19T07:45:38.499Z,21.60
2023-05-19T07:48:52.087Z,21.46
2023-05-19T07:51:54.661Z,21.67
2023-05-19T07:54:57.140Z,21.62
2023-05-19T07:57:59.778Z,21.72
2023-05-19T08:01:02.702Z,21.71
2023-05-19T08:04:05.763Z,21.88
2023-05-19T08:07:09.423Z,21.91
2023-05-19T08:10:12.025Z,21.70
2023-05-19T08:13:14.488Z,21.70
2023-05-19T08:16:17.082Z,21.65
2023-05-19T08:19:22.193Z,21.62
2023-05-19T08:22:25.098Z,21.77
2023-05-19T08:25:27.803Z,21.51
2023-05-19T08:28:30.860Z,21.37
2023-05-19T08:31:36.896Z,21.60
2023-05-19T08:34:50.741Z,21.73
2023-05-19T08:37:54.139Z,21.33
2023-05-19T08:40:58.232Z,21.42
2023-05-19T08:44:00.898Z,21.45
2023-05-19T08:47:12.829Z,21.27
2023-05-19T08:50:24.994Z,21.45
2023-05-19T08:53:37.061Z,21.27
2023-05-19T08:56:39.760Z,21.22
2023-05-19T08:59:43.732Z,21.36
2023-05-19T09:02:59.819Z,21.19
2023-05-19T09:06:08.845Z,21.18
2023-05-19T09:09:11.795Z,21.14
2023-05-19T09:12:14.581Z,21.31
2023-05-19T09:15:21.231Z,21.11
2023-05-19T09:18:25.223Z,21.22
2023-05-19T09:21:31.690Z,21.06
2023-05-19T09:24:35.005Z,20.92
2023-05-19T09:27:38.186Z,20.90
2023-05-19T09:34:13.546Z,20.92
2023-05-19T09:37:27.237Z,20.92
2023-05-19T09:40:32.783Z,21.00
2023-05-19T09:43:35.730Z,21.12
2023-05-19T09:46:38.813Z,21.11
2023-05-19T09:49:54.009Z,21.07
2023-05-19T09:53:05.598Z,20.76
2023-05-19T09:59:33.435Z,20.71
2023-05-19T10:02:37.091Z,20.91
2023-05-19T10:05:41.623Z,20.87
2023-05-19T10:08:44.348Z,20.85
2023-05-19T10:11:49.211Z,20.73
2023-05-19T10:14:54.864Z,20.68
2023-05-19T10:17:57.645Z,20.64
2023-05-19T10:21:02.741Z,20.80
2023-05-19T10:24:05.662Z,20.79
2023-05-19T10:27:11.915Z,20.87
2023-05-19T10:30:23.831Z,20.84
2023-05-19T10:33:45.335Z,20.85
2023-05-19T10:37:15.132Z,20.69
2023-05-19T10:40:30.709Z,20.77
2023-05-19T10:43:49.925Z,20.77
2023-05-19T10:46:53.505Z,20.81
2023-05-19T10:50:00.840Z,20.78
2023-05-19T10:54:12.201Z,20.81
2023-05-19T10:57:18.395Z,20.80
2023-05-19T11:00:28.188Z,20.71
2023-05-19T11:06:44.005Z,20.65
2023-05-19T11:09:51.823Z,20.51
2023-05-19T11:16:08.244Z,20.78
2023-05-19T11:19:20.029Z,20.77
2023-05-19T11:22:28.657Z,20.72
2023-05-19T11:25:51.666Z,20.73
2023-05-19T11:28:54.479Z,20.63
2023-05-19T11:31:57.320Z,20.68
2023-05-19T11:35:00.985Z,20.67
2023-05-19T11:38:04.116Z,20.69
2023-05-19T11:41:06.654Z,20.62
2023-05-19T11:44:12.372Z,20.32
2023-05-19T11:47:15.828Z,20.67
2023-05-19T11:50:19.036Z,20.59
2023-05-19T11:53:21.543Z,20.59
2023-05-19T11:56:24.007Z,20.60
2023-05-19T11:59:35.634Z,20.52
2023-05-19T12:02:39.631Z,20.58
2023-05-19T12:05:46.706Z,20.57
2023-05-19T12:08:52.148Z,20.56
2023-05-19T12:11:55.248Z,20.35
2023-05-19T12:14:59.774Z,20.53
2023-05-19T12:18:02.703Z,20.47
2023-05-19T12:21:06.005Z,20.47
2023-05-19T12:24:09.056Z,20.29
2023-05-19T12:27:13.884Z,20.46
2023-05-19T12:30:17.392Z,20.41
2023-05-19T12:33:20.164Z,20.22
2023-05-19T12:36:25.188Z,20.19
2023-05-19T12:39:27.856Z,20.57
2023-05-19T12:42:31.581Z,20.60
2023-05-19T12:45:35.116Z,20.53
2023-05-19T12:48:44.467Z,20.57
2023-05-19T12:51:54.181Z,20.54
2023-05-19T12:55:07.600Z,20.43
2023-05-19T12:58:12.182Z,20.55
2023-05-19T13:01:18.864Z,20.50
2023-05-19T13:04:21.389Z,20.52
2023-05-19T13:07:23.936Z,20.52
2023-05-19T13:10:27.863Z,20.40
2023-05-19T13:13:30.290Z,20.50
2023-05-19T13:16:33.084Z,20.29
2023-05-19T13:19:35.648Z,20.42
2023-05-19T13:22:38.295Z,20.46
2023-05-19T13:25:41.572Z,20.45
2023-05-19T13:28:43.995Z,20.42
2023-05-19T13:31:46.536Z,20.44
2023-05-19T13:34:49.038Z,20.44
2023-05-19T13:37:51.431Z,20.28
2023-05-19T13:40:53.972Z,20.32
2023-05-19T13:43:59.800Z,20.20
2023-05-19T13:47:02.287Z,20.25
2023-05-19T13:50:05.792Z,20.33
2023-05-19T13:53:08.544Z,20.27
2023-05-19T13:56:11.007Z,20.26
2023-05-19T13:59:14.084Z,20.29
2023-05-19T14:02:16.612Z,20.34
2023-05-19T14:05:19.086Z,20.08
2023-05-19T14:08:22.162Z,20.34
2023-05-19T14:11:24.694Z,20.33
2023-05-19T14:14:27.226Z,20.30
2023-05-19T14:17:29.665Z,20.20
2023-05-19T14:20:32.358Z,20.29
2023-05-19T14:23:34.896Z,20.32
2023-05-19T14:26:37.309Z,20.25
2023-05-19T14:29:39.736Z,20.19
2023-05-19T14:32:42.394Z,20.29
2023-05-19T14:35:45.098Z,20.18
2023-05-19T14:38:47.454Z,20.28
2023-05-19T14:41:51.580Z,20.29
2023-05-19T14:44:54.038Z,20.23
2023-05-19T14:47:59.607Z,20.29
2023-05-19T14:51:02.032Z,20.10
2023-05-19T14:54:04.420Z,20.29
2023-05-19T14:57:08.225Z,20.17
2023-05-19T15:00:11.109Z,20.17
2023-05-19T15:03:13.612Z,20.18
2023-05-19T15:06:16.132Z,20.21
2023-05-19T15:09:18.569Z,20.28
2023-05-19T15:12:21.077Z,20.26
2023-05-19T15:15:23.667Z,20.31
2023-05-19T15:18:26.316Z,20.15
2023-05-19T15:21:28.834Z,20.02
2023-05-19T15:24:31.220Z,20.29
2023-05-19T15:27:37.642Z,20.13
2023-05-19T15:30:40.239Z,20.19
2023-05-19T15:33:42.660Z,20.28
2023-05-19T15:36:45.275Z,20.18
2023-05-19T15:39:47.779Z,20.17
2023-05-19T15:42:50.492Z,20.27
2023-05-19T15:45:55.257Z,20.27
2023-05-19T15:48:57.852Z,20.10
2023-05-19T15:52:00.422Z,20.29
2023-05-19T15:55:02.973Z,20.07
2023-05-19T15:58:05.462Z,20.07
2023-05-19T16:01:08.465Z,20.06
2023-05-19T16:04:11.344Z,20.15
2023-05-19T16:07:13.895Z,20.01
2023-05-19T16:10:16.378Z,20.09
2023-05-19T16:13:18.811Z,20.03
2023-05-19T16:16:21.357Z,20.12
2023-05-19T16:19:24.160Z,20.09
2023-05-19T16:22:27.278Z,19.88
2023-05-19T16:25:29.872Z,20.08
2023-05-19T16:28:32.619Z,20.14
2023-05-19T16:31:35.114Z,20.02
2023-05-19T16:34:37.571Z,19.95
2023-05-19T16:37:40.239Z,19.85
2023-05-19T16:40:42.727Z,20.17
2023-05-19T16:43:45.215Z,19.93
2023-05-19T16:46:47.654Z,20.08
2023-05-19T16:49:50.224Z,19.90
2023-05-19T16:52:52.659Z,19.93
2023-05-19T16:55:55.099Z,19.99
2023-05-19T16:58:57.617Z,19.89
2023-05-19T17:02:00.197Z,19.87
2023-05-19T17:05:02.719Z,19.86
2023-05-19T17:08:05.965Z,19.96
2023-05-19T17:11:08.650Z,19.88
2023-05-19T17:14:11.138Z,19.87
2023-05-19T17:17:13.667Z,19.66
2023-05-19T17:20:16.535Z,19.96
2023-05-19T17:23:18.981Z,19.82
2023-05-19T17:26:22.204Z,19.87
2023-05-19T17:29:24.857Z,19.95
2023-05-19T17:32:29.360Z,19.65
2023-05-19T17:35:33.461Z,19.95
2023-05-19T17:38:40.243Z,20.00
2023-05-19T17:41:43.172Z,20.00
2023-05-19T17:44:45.628Z,19.83
2023-05-19T17:47:48.593Z,19.90
2023-05-19T17:50:51.179Z,19.69
2023-05-19T17:53:53.905Z,19.71
2023-05-19T17:56:58.465Z,19.84
2023-05-19T18:00:02.025Z,19.70
2023-05-19T18:03:08.082Z,19.85
2023-05-19T18:06:11.870Z,19.64
2023-05-19T18:09:15.630Z,19.71
2023-05-19T18:12:18.159Z,19.58
2023-05-19T18:15:20.791Z,19.61
2023-05-19T18:18:23.239Z,19.71
2023-05-19T18:21:26.927Z,19.62
2023-05-19T18:24:29.391Z,19.58
2023-05-19T18:27:33.516Z,19.54
2023-05-19T18:30:36.294Z,19.47
2023-05-19T18:33:39.935Z,19.53
2023-05-19T18:36:42.482Z,19.50
2023-05-19T18:39:44.967Z,19.53
2023-05-19T18:42:47.879Z,19.38
2023-05-19T18:45:50.468Z,19.30
2023-05-19T18:48:53.036Z,19.37
2023-05-19T18:51:55.591Z,19.28
2023-05-19T18:54:59.671Z,19.35
2023-05-19T18:58:02.137Z,19.44
2023-05-19T19:01:05.309Z,19.22
2023-05-19T19:04:07.904Z,19.25
2023-05-19T19:07:10.370Z,19.37
2023-05-19T19:10:13.065Z,19.37
2023-05-19T19:13:15.550Z,19.32
2023-05-19T19:16:18.029Z,19.25
2023-05-19T19:19:20.774Z,19.17
2023-05-19T19:22:23.286Z,19.12
2023-05-19T19:25:25.819Z,19.19
2023-05-19T19:28:28.274Z,19.24
2023-05-19T19:31:30.768Z,19.12
2023-05-19T19:34:33.974Z,19.36
2023-05-19T19:37:36.477Z,18.95
2023-05-19T19:40:38.982Z,19.07
2023-05-19T19:43:41.398Z,19.30
2023-05-19T19:46:43.958Z,19.04
2023-05-19T19:49:46.519Z,18.95
2023-05-19T19:52:48.942Z,19.23
2023-05-19T19:56:01.675Z,19.22
2023-05-19T19:59:04.104Z,18.90
2023-05-19T20:02:07.052Z,19.01
2023-05-19T20:05:09.821Z,18.99
2023-05-19T20:08:13.958Z,18.96
2023-05-19T20:11:17.489Z,18.84
2023-05-19T20:14:20.007Z,19.08
2023-05-19T20:17:22.471Z,18.96
2023-05-19T20:20:25.022Z,18.92
2023-05-19T20:23:27.551Z,18.85
2023-05-19T20:26:30.052Z,18.98
2023-05-19T20:29:34.909Z,18.84
2023-05-19T20:32:37.327Z,19.00
2023-05-19T20:35:39.893Z,18.74
2023-05-19T20:38:42.426Z,18.88
2023-05-19T20:41:44.902Z,18.94
2023-05-19T20:44:47.313Z,18.76
2023-05-19T20:47:49.849Z,18.86
2023-05-19T20:50:53.747Z,18.67
2023-05-19T20:53:56.210Z,18.74
2023-05-19T20:56:58.671Z,18.70
2023-05-19T21:00:01.158Z,18.80
2023-05-19T21:03:03.723Z,18.63
2023-05-19T21:06:06.565Z,18.84
2023-05-19T21:09:09.675Z,18.64
2023-05-19T21:12:15.089Z,18.70
2023-05-19T21:15:17.602Z,18.74
2023-05-19T21:18:20.101Z,18.65
2023-05-19T21:21:22.555Z,18.61
2023-05-19T21:24:24.954Z,18.76
2023-05-19T21:27:27.451Z,18.65
2023-05-19T21:30:29.970Z,18.61
2023-05-19T21:33:32.484Z,18.44
2023-05-19T21:36:35.327Z,18.81
2023-05-19T21:39:37.770Z,18.68
2023-05-19T21:42:40.290Z,18.58
2023-05-19T21:45:42.756Z,18.60
2023-05-19T21:48:45.260Z,18.64
2023-05-19T21:51:47.752Z,18.52
2023-05-19T21:54:52.025Z,18.71
2023-05-19T21:57:54.466Z,18.57
2023-05-19T22:00:56.919Z,18.56
2023-05-19T22:03:59.414Z,18.66
2023-05-19T22:07:01.943Z,18.44
2023-05-19T22:10:04.820Z,18.54
2023-05-19T22:13:07.472Z,18.34
2023-05-19T22:16:10.134Z,18.66
2023-05-19T22:19:12.968Z,18.73
2023-05-19T22:22:16.011Z,18.56
2023-05-19T22:25:18.682Z,18.55
2023-05-19T22:28:21.169Z,18.41
2023-05-19T22:31:23.589Z,18.64
2023-05-19T22:34:26.251Z,18.51
2023-05-19T22:37:29.154Z,18.29
2023-05-19T22:40:32.645Z,18.58
2023-05-19T22:43:35.323Z,18.35
2023-05-19T22:46:37.902Z,18.63
2023-05-19T22:49:41.557Z,18.36
2023-05-19T22:52:44.062Z,18.37
2023-05-19T22:55:46.579Z,18.43
2023-05-19T22:58:49.042Z,18.28
2023-05-19T23:01:51.446Z,18.50
2023-05-19T23:04:53.877Z,18.44
2023-05-19T23:07:56.312Z,18.36
2023-05-19T23:11:02.360Z,18.36
2023-05-19T23:14:04.985Z,18.38
2023-05-19T23:17:07.495Z,18.37
2023-05-19T23:20:10.737Z,18.36
2023-05-19T23:23:13.347Z,18.39
2023-05-19T23:26:15.919Z,18.41
2023-05-19T23:29:18.539Z,18.55
2023-05-19T23:32:21.026Z,18.18
2023-05-19T23:35:23.550Z,18.47
2023-05-19T23:38:27.080Z,18.34
2023-05-19T23:41:29.632Z,18.52
2023-05-19T23:44:32.110Z,18.40
2023-05-19T23:47:34.600Z,18.44
2023-05-19T23:50:37.116Z,18.28
2023-05-19T23:53:39.703Z,18.35
2023-05-19T23:56:42.084Z,18.25
2023-05-19T23:59:44.796Z,18.23
